Time,TemperatureF,DewpointF,PressureIn,WindDirection,WindDirectionDegrees,WindSpeedMPH,WindSpeedGustMPH,Humidity,HourlyPrecipIn,Conditions,Clouds,dailyrainin,SoftwareType,DateUTC
2013-01-08 00:02:00,33.0,27.0,29.96,SSW,205,5.0,7.0,79,0.00,,,0.00,,2013-01-08 06:02:00,
2013-01-08 00:12:00,33.0,27.0,29.96,SSW,205,5.0,7.0,79,0.00,,,0.00,,2013-01-08 06:12:00,
2013-01-08 00:22:00,33.0,27.0,29.96,SSW,207,4.0,6.0,79,0.00,,,0.00,,2013-01-08 06:22:00,
2013-01-08 00:32:00,33.0,28.0,29.96,SW,219,5.0,9.0,80,0.00,,,0.00,,2013-01-08 06:32:00,
2013-01-08 00:42:00,33.0,28.0,29.96,SW,219,5.0,9.0,80,0.00,,,0.00,,2013-01-08 06:42:00,
2013-01-08 00:53:00,34.0,28.0,29.95,SSW,212,6.0,10.0,79,0.00,,,0.00,,2013-01-08 06:53:00,
2013-01-08 01:02:00,34.0,28.0,29.95,SSW,211,7.0,10.0,80,0.00,,,0.00,,2013-01-08 07:02:00,
2013-01-08 01:12:00,34.0,28.0,29.95,SSW,211,7.0,10.0,80,0.00,,,0.00,,2013-01-08 07:12:00,
2013-01-08 01:22:00,34.0,28.0,29.95,SW,221,6.0,10.0,80,0.00,,,0.00,,2013-01-08 07:22:00,
2013-01-08 01:32:00,34.0,28.0,29.95,SSW,212,6.0,11.0,80,0.00,,,0.00,,2013-01-08 07:32:00,
2013-01-08 01:42:00,34.0,28.0,29.95,SSW,212,6.0,11.0,80,0.00,,,0.00,,2013-01-08 07:42:00,
2013-01-08 01:52:00,34.0,28.0,29.95,SW,218,5.0,10.0,80,0.00,,,0.00,,2013-01-08 07:52:00,
2013-01-08 02:02:00,33.0,28.0,29.95,SSW,201,6.0,8.0,80,0.00,,,0.00,,2013-01-08 08:02:00,
2013-01-08 02:12:00,33.0,28.0,29.95,SSW,201,6.0,8.0,80,0.00,,,0.00,,2013-01-08 08:12:00,
2013-01-08 02:22:00,33.0,28.0,29.96,SSW,198,4.0,6.0,80,0.00,,,0.00,,2013-01-08 08:22:00,
2013-01-08 02:32:00,33.0,28.0,29.96,SSW,211,4.0,8.0,80,0.00,,,0.00,,2013-01-08 08:32:00,
2013-01-08 02:42:00,33.0,28.0,29.96,SSW,211,4.0,8.0,80,0.00,,,0.00,,2013-01-08 08:42:00,
2013-01-08 02:53:00,33.0,28.0,29.96,SSW,209,5.0,9.0,81,0.00,,,0.00,,2013-01-08 08:53:00,
2013-01-08 03:02:00,33.0,28.0,29.95,SSW,194,7.0,11.0,80,0.00,,,0.00,,2013-01-08 09:02:00,
2013-01-08 03:12:00,33.0,28.0,29.95,SSW,194,7.0,11.0,80,0.00,,,0.00,,2013-01-08 09:12:00,
2013-01-08 03:22:00,33.0,28.0,29.96,SW,215,7.0,10.0,80,0.00,,,0.00,,2013-01-08 09:22:00,
2013-01-08 03:32:00,33.0,28.0,29.95,SSW,213,6.0,10.0,80,0.00,,,0.00,,2013-01-08 09:32:00,
2013-01-08 03:42:00,33.0,28.0,29.95,SSW,213,6.0,10.0,80,0.00,,,0.00,,2013-01-08 09:42:00,
2013-01-08 03:52:00,33.0,28.0,29.96,SW,217,4.0,9.0,80,0.00,,,0.00,,2013-01-08 09:52:00,
2013-01-08 04:02:00,33.0,28.0,29.95,SSW,211,6.0,9.0,80,0.00,,,0.00,,2013-01-08 10:02:00,
2013-01-08 04:12:00,33.0,28.0,29.95,SSW,211,6.0,9.0,80,0.00,,,0.00,,2013-01-08 10:12:00,
2013-01-08 04:22:00,33.0,27.0,29.95,SW,216,6.0,10.0,79,0.00,,,0.00,,2013-01-08 10:22:00,
2013-01-08 04:32:00,33.0,27.0,29.94,SSW,209,6.0,9.0,79,0.00,,,0.00,,2013-01-08 10:32:00,
2013-01-08 04:42:00,33.0,27.0,29.94,SSW,209,6.0,9.0,79,0.00,,,0.00,,2013-01-08 10:42:00,
2013-01-08 04:52:00,33.0,27.0,29.93,SSW,195,7.0,12.0,79,0.00,,,0.00,,2013-01-08 10:52:00,
2013-01-08 05:02:00,33.0,27.0,29.93,SSW,208,8.0,12.0,79,0.00,,,0.00,,2013-01-08 11:02:00,
2013-01-08 05:12:00,33.0,27.0,29.93,SSW,208,8.0,12.0,79,0.00,,,0.00,,2013-01-08 11:12:00,
2013-01-08 05:22:00,33.0,27.0,29.92,SSW,196,9.0,12.0,79,0.00,,,0.00,,2013-01-08 11:22:00,
2013-01-08 05:32:00,33.0,27.0,29.92,SSW,213,8.0,12.0,79,0.00,,,0.00,,2013-01-08 11:32:00,
2013-01-08 05:42:00,33.0,27.0,29.92,SSW,213,8.0,12.0,79,0.00,,,0.00,,2013-01-08 11:42:00,
2013-01-08 05:53:00,33.0,28.0,29.91,SSW,211,9.0,12.0,80,0.00,,,0.00,,2013-01-08 11:53:00,
2013-01-08 06:02:00,33.0,27.0,29.91,SSW,195,8.0,14.0,79,0.00,,,0.00,,2013-01-08 12:02:00,
2013-01-08 06:12:00,33.0,27.0,29.91,SSW,195,8.0,14.0,79,0.00,,,0.00,,2013-01-08 12:12:00,
2013-01-08 06:22:00,33.0,27.0,29.91,SSW,196,8.0,15.0,79,0.00,,,0.00,,2013-01-08 12:22:00,
2013-01-08 06:32:00,34.0,28.0,29.90,SSW,203,12.0,20.0,79,0.00,,,0.00,,2013-01-08 12:32:00,
2013-01-08 06:42:00,34.0,28.0,29.90,SSW,203,12.0,20.0,79,0.00,,,0.00,,2013-01-08 12:42:00,
2013-01-08 06:53:00,34.0,28.0,29.90,SSW,195,9.0,15.0,79,0.00,,,0.00,,2013-01-08 12:53:00,
2013-01-08 07:03:00,33.0,27.0,29.90,SSW,193,9.0,15.0,79,0.00,,,0.00,,2013-01-08 13:03:00,
2013-01-08 07:12:00,33.0,27.0,29.90,SSW,193,9.0,15.0,79,0.00,,,0.00,,2013-01-08 13:12:00,
2013-01-08 07:22:00,33.0,28.0,29.90,SSW,200,11.0,16.0,80,0.00,,,0.00,,2013-01-08 13:22:00,
2013-01-08 07:32:00,34.0,28.0,29.91,SSW,213,12.0,16.0,79,0.00,,,0.00,,2013-01-08 13:32:00,
2013-01-08 07:42:00,34.0,28.0,29.91,SSW,213,12.0,16.0,79,0.00,,,0.00,,2013-01-08 13:42:00,
2013-01-08 07:53:00,33.0,28.0,29.91,SSW,207,10.0,14.0,80,0.00,,,0.00,,2013-01-08 13:53:00,
2013-01-08 08:02:00,34.0,28.0,29.91,SSW,196,9.0,15.0,80,0.00,,,0.00,,2013-01-08 14:02:00,
2013-01-08 08:12:00,34.0,28.0,29.91,SSW,196,9.0,15.0,80,0.00,,,0.00,,2013-01-08 14:12:00,
2013-01-08 08:23:00,33.0,28.0,29.92,SSW,198,8.0,13.0,80,0.00,,,0.00,,2013-01-08 14:23:00,
2013-01-08 08:33:00,34.0,29.0,29.93,SSW,210,9.0,13.0,81,0.00,,,0.00,,2013-01-08 14:33:00,
2013-01-08 08:42:00,34.0,29.0,29.93,SSW,210,9.0,13.0,81,0.00,,,0.00,,2013-01-08 14:42:00,
2013-01-08 08:53:00,35.0,29.0,29.92,SSW,195,9.0,18.0,80,0.00,,,0.00,,2013-01-08 14:53:00,
2013-01-08 09:02:00,36.0,30.0,29.93,SW,232,11.0,16.0,79,0.00,,,0.00,,2013-01-08 15:02:00,
2013-01-08 09:12:00,36.0,30.0,29.93,SW,232,11.0,16.0,79,0.00,,,0.00,,2013-01-08 15:12:00,
2013-01-08 09:22:00,37.0,31.0,29.94,SSW,198,9.0,15.0,78,0.00,,,0.00,,2013-01-08 15:22:00,
2013-01-08 09:33:00,37.0,30.0,29.94,SW,219,10.0,16.0,77,0.00,,,0.00,,2013-01-08 15:33:00,
2013-01-08 09:43:00,37.0,30.0,29.94,SW,219,10.0,16.0,77,0.00,,,0.00,,2013-01-08 15:43:00,
2013-01-08 09:53:00,37.0,30.0,29.95,WSW,238,10.0,15.0,77,0.00,,,0.00,,2013-01-08 15:53:00,
2013-01-08 10:03:00,37.0,31.0,29.95,SW,225,12.0,18.0,78,0.00,,,0.00,,2013-01-08 16:03:00,
2013-01-08 10:12:00,37.0,31.0,29.95,SW,225,12.0,18.0,78,0.00,,,0.00,,2013-01-08 16:12:00,
2013-01-08 10:22:00,38.0,31.0,29.95,SW,215,11.0,16.0,76,0.00,,,0.00,,2013-01-08 16:22:00,
2013-01-08 10:33:00,39.0,31.0,29.95,SSW,213,12.0,18.0,74,0.00,,,0.00,,2013-01-08 16:33:00,
2013-01-08 10:42:00,39.0,31.0,29.95,SSW,213,12.0,18.0,74,0.00,,,0.00,,2013-01-08 16:42:00,
2013-01-08 10:53:00,40.0,32.0,29.95,SW,221,13.0,18.0,72,0.00,,,0.00,,2013-01-08 16:53:00,
2013-01-08 11:12:00,41.0,33.0,29.94,SSW,209,16.0,21.0,72,0.00,,,0.00,,2013-01-08 17:12:00,
2013-01-08 11:23:00,41.0,32.0,29.95,South,183,11.0,19.0,71,0.00,,,0.00,,2013-01-08 17:23:00,
2013-01-08 11:33:00,41.0,32.0,29.94,SSW,199,15.0,22.0,70,0.00,,,0.00,,2013-01-08 17:33:00,
2013-01-08 11:43:00,41.0,32.0,29.94,SSW,199,15.0,22.0,70,0.00,,,0.00,,2013-01-08 17:43:00,
2013-01-08 11:53:00,42.0,33.0,29.93,South,190,13.0,20.0,69,0.00,,,0.00,,2013-01-08 17:53:00,
2013-01-08 12:03:00,42.0,33.0,29.93,WSW,248,9.0,22.0,69,0.00,,,0.00,,2013-01-08 18:03:00,
2013-01-08 12:12:00,42.0,33.0,29.93,WSW,248,9.0,22.0,69,0.00,,,0.00,,2013-01-08 18:12:00,
2013-01-08 12:23:00,43.0,33.0,29.92,SW,226,13.0,21.0,68,0.00,,,0.00,,2013-01-08 18:23:00,
2013-01-08 12:33:00,43.0,33.0,29.92,SSW,212,15.0,25.0,67,0.00,,,0.00,,2013-01-08 18:33:00,
2013-01-08 12:43:00,43.0,33.0,29.92,SSW,212,15.0,25.0,67,0.00,,,0.00,,2013-01-08 18:43:00,
2013-01-08 12:53:00,43.0,33.0,29.91,SW,227,12.0,21.0,68,0.00,,,0.00,,2013-01-08 18:53:00,
2013-01-08 13:03:00,44.0,34.0,29.91,WSW,246,12.0,21.0,67,0.00,,,0.00,,2013-01-08 19:03:00,
2013-01-08 13:12:00,44.0,34.0,29.91,WSW,246,12.0,21.0,67,0.00,,,0.00,,2013-01-08 19:12:00,
2013-01-08 13:22:00,45.0,34.0,29.91,SW,236,14.0,22.0,64,0.00,,,0.00,,2013-01-08 19:22:00,
2013-01-08 13:32:00,44.0,33.0,29.90,SW,218,16.0,24.0,64,0.00,,,0.00,,2013-01-08 19:32:00,
2013-01-08 13:42:00,44.0,33.0,29.90,SW,218,16.0,24.0,64,0.00,,,0.00,,2013-01-08 19:42:00,
2013-01-08 13:53:00,44.0,33.0,29.90,SW,225,16.0,24.0,64,0.00,,,0.00,,2013-01-08 19:53:00,
2013-01-08 14:02:00,44.0,33.0,29.91,SW,232,17.0,23.0,64,0.00,,,0.00,,2013-01-08 20:02:00,
2013-01-08 14:12:00,44.0,33.0,29.91,SW,232,17.0,23.0,64,0.00,,,0.00,,2013-01-08 20:12:00,
2013-01-08 14:23:00,45.0,33.0,29.91,SW,231,18.0,23.0,63,0.00,,,0.00,,2013-01-08 20:23:00,
2013-01-08 14:33:00,44.0,33.0,29.92,WSW,246,17.0,24.0,65,0.00,,,0.00,,2013-01-08 20:33:00,
2013-01-08 14:43:00,44.0,33.0,29.92,WSW,246,17.0,24.0,65,0.00,,,0.00,,2013-01-08 20:43:00,
2013-01-08 14:53:00,44.0,34.0,29.93,WSW,240,12.0,21.0,67,0.00,,,0.00,,2013-01-08 20:53:00,
2013-01-08 15:02:00,43.0,33.0,29.93,WSW,242,13.0,20.0,67,0.00,,,0.00,,2013-01-08 21:02:00,
2013-01-08 15:12:00,43.0,33.0,29.93,WSW,242,13.0,20.0,67,0.00,,,0.00,,2013-01-08 21:12:00,
2013-01-08 15:22:00,43.0,33.0,29.94,WSW,243,13.0,20.0,68,0.00,,,0.00,,2013-01-08 21:22:00,
2013-01-08 15:33:00,43.0,34.0,29.95,West,259,10.0,15.0,70,0.00,,,0.00,,2013-01-08 21:33:00,
2013-01-08 15:43:00,43.0,34.0,29.95,West,259,10.0,15.0,70,0.00,,,0.00,,2013-01-08 21:43:00,
2013-01-08 15:53:00,43.0,34.0,29.96,WSW,244,10.0,14.0,70,0.00,,,0.00,,2013-01-08 21:53:00,
2013-01-08 16:03:00,44.0,34.0,29.96,West,265,12.0,15.0,68,0.00,,,0.00,,2013-01-08 22:03:00,
2013-01-08 16:12:00,44.0,34.0,29.96,West,265,12.0,15.0,68,0.00,,,0.00,,2013-01-08 22:12:00,
2013-01-08 16:23:00,43.0,33.0,29.96,WSW,254,11.0,18.0,68,0.00,,,0.00,,2013-01-08 22:23:00,
2013-01-08 16:32:00,43.0,34.0,29.98,West,261,9.0,12.0,69,0.00,,,0.00,,2013-01-08 22:32:00,
2013-01-08 16:42:00,43.0,34.0,29.98,West,261,9.0,12.0,69,0.00,,,0.00,,2013-01-08 22:42:00,
2013-01-08 16:53:00,42.0,33.0,29.98,WSW,250,9.0,12.0,69,0.00,,,0.00,,2013-01-08 22:53:00,
2013-01-08 17:02:00,41.0,32.0,29.99,WSW,246,9.0,13.0,70,0.00,,,0.00,,2013-01-08 23:02:00,
2013-01-08 17:12:00,41.0,32.0,29.99,WSW,246,9.0,13.0,70,0.00,,,0.00,,2013-01-08 23:12:00,
2013-01-08 17:22:00,39.0,31.0,30.01,WSW,249,6.0,9.0,73,0.00,,,0.00,,2013-01-08 23:22:00,
2013-01-08 17:32:00,38.0,30.0,30.01,West,265,6.0,9.0,74,0.00,,,0.00,,2013-01-08 23:32:00,
2013-01-08 17:43:00,38.0,30.0,30.01,West,265,6.0,9.0,74,0.00,,,0.00,,2013-01-08 23:43:00,
2013-01-08 17:53:00,35.0,29.0,30.02,West,271,6.0,8.0,79,0.00,,,0.00,,2013-01-08 23:53:00,
2013-01-08 18:02:00,35.0,29.0,30.03,West,271,3.0,5.0,80,0.00,,,0.00,,2013-01-09 00:02:00,
2013-01-08 18:12:00,35.0,29.0,30.03,West,271,3.0,5.0,80,0.00,,,0.00,,2013-01-09 00:12:00,
2013-01-08 18:22:00,34.0,29.0,30.04,West,259,5.0,6.0,82,0.00,,,0.00,,2013-01-09 00:22:00,
2013-01-08 18:33:00,33.0,29.0,30.05,WSW,251,6.0,7.0,85,0.00,,,0.00,,2013-01-09 00:33:00,
2013-01-08 18:42:00,33.0,29.0,30.05,WSW,251,6.0,7.0,85,0.00,,,0.00,,2013-01-09 00:42:00,
2013-01-08 18:53:00,32.0,28.0,30.06,WSW,246,5.0,7.0,84,0.00,,,0.00,,2013-01-09 00:53:00,
2013-01-08 19:02:00,32.0,28.0,30.06,WSW,249,4.0,7.0,84,0.00,,,0.00,,2013-01-09 01:02:00,
2013-01-08 19:12:00,32.0,28.0,30.06,WSW,249,4.0,7.0,84,0.00,,,0.00,,2013-01-09 01:12:00,
2013-01-08 19:22:00,31.0,27.0,30.07,West,269,3.0,6.0,85,0.00,,,0.00,,2013-01-09 01:22:00,
2013-01-08 19:32:00,31.0,27.0,30.08,West,265,4.0,6.0,86,0.00,,,0.00,,2013-01-09 01:32:00,
2013-01-08 19:42:00,31.0,27.0,30.08,West,265,4.0,6.0,86,0.00,,,0.00,,2013-01-09 01:42:00,
2013-01-08 19:52:00,31.0,28.0,30.08,West,266,0.0,4.0,87,0.00,,,0.00,,2013-01-09 01:52:00,
2013-01-08 20:02:00,32.0,29.0,30.09,WSW,248,7.0,9.0,87,0.00,,,0.00,,2013-01-09 02:02:00,
2013-01-08 20:12:00,32.0,29.0,30.09,WSW,248,7.0,9.0,87,0.00,,,0.00,,2013-01-09 02:12:00,
2013-01-08 20:22:00,33.0,29.0,30.09,WNW,283,5.0,8.0,84,0.00,,,0.00,,2013-01-09 02:22:00,
2013-01-08 20:32:00,31.0,27.0,30.11,WSW,242,4.0,5.0,86,0.00,,,0.00,,2013-01-09 02:32:00,
2013-01-08 20:42:00,31.0,27.0,30.11,WSW,242,4.0,5.0,86,0.00,,,0.00,,2013-01-09 02:42:00,
2013-01-08 20:53:00,30.0,26.0,30.11,WSW,257,4.0,6.0,86,0.00,,,0.00,,2013-01-09 02:53:00,
2013-01-08 21:03:00,30.0,27.0,30.13,West,278,5.0,6.0,88,0.00,,,0.00,,2013-01-09 03:03:00,
2013-01-08 21:12:00,30.0,27.0,30.13,West,278,5.0,6.0,88,0.00,,,0.00,,2013-01-09 03:12:00,
2013-01-08 21:22:00,29.0,26.0,30.14,West,274,5.0,7.0,87,0.00,,,0.00,,2013-01-09 03:22:00,
2013-01-08 21:33:00,28.0,25.0,30.14,West,262,5.0,6.0,88,0.00,,,0.00,,2013-01-09 03:33:00,
2013-01-08 21:42:00,28.0,25.0,30.14,West,262,5.0,6.0,88,0.00,,,0.00,,2013-01-09 03:42:00,
2013-01-08 21:53:00,28.0,25.0,30.15,West,261,6.0,7.0,90,0.00,,,0.00,,2013-01-09 03:53:00,
2013-01-08 22:02:00,29.0,26.0,30.16,West,260,4.0,5.0,88,0.00,,,0.00,,2013-01-09 04:02:00,
2013-01-08 22:12:00,29.0,26.0,30.16,West,260,4.0,5.0,88,0.00,,,0.00,,2013-01-09 04:12:00,
2013-01-08 22:22:00,29.0,26.0,30.16,WSW,257,5.0,6.0,90,0.00,,,0.00,,2013-01-09 04:22:00,
2013-01-08 22:32:00,31.0,27.0,30.16,WSW,248,5.0,7.0,86,0.00,,,0.00,,2013-01-09 04:32:00,
2013-01-08 22:42:00,32.0,28.0,30.16,WSW,254,5.0,6.0,84,0.00,,,0.00,,2013-01-09 04:42:00,
2013-01-08 22:52:00,32.0,28.0,30.16,WSW,254,5.0,6.0,84,0.00,,,0.00,,2013-01-09 04:52:00,
2013-01-08 23:03:00,31.0,27.0,30.17,West,261,1.0,6.0,85,0.00,,,0.00,,2013-01-09 05:03:00,
2013-01-08 23:12:00,31.0,27.0,30.17,West,261,1.0,6.0,85,0.00,,,0.00,,2013-01-09 05:12:00,
2013-01-08 23:22:00,32.0,28.0,30.17,West,261,4.0,5.0,84,0.00,,,0.00,,2013-01-09 05:22:00,
2013-01-08 23:33:00,32.0,27.0,30.18,West,262,4.0,5.0,83,0.00,,,0.00,,2013-01-09 05:33:00,
2013-01-08 23:42:00,32.0,27.0,30.18,West,262,4.0,5.0,83,0.00,,,0.00,,2013-01-09 05:42:00,
2013-01-08 23:52:00,31.0,26.0,30.18,West,271,4.0,5.0,83,0.00,,,0.00,,2013-01-09 05:52:00,